createdAt,value
2019-04-10T00:00:06.375Z,0.00
2019-04-10T00:01:07.761Z,0.00
2019-04-10T00:02:05.207Z,0.00
2019-04-10T00:03:06.170Z,0.00
2019-04-10T00:04:05.182Z,0.00
2019-04-10T00:05:05.241Z,0.00
2019-04-10T00:06:05.155Z,0.00
2019-04-10T00:07:12.749Z,0.00
2019-04-10T00:08:06.300Z,0.00
2019-04-10T00:09:05.150Z,0.00
2019-04-10T00:10:05.580Z,0.00
2019-04-10T00:11:05.135Z,0.00
2019-04-10T00:12:05.365Z,0.00
2019-04-10T00:13:05.127Z,0.00
2019-04-10T00:14:05.099Z,0.00
2019-04-10T00:15:05.136Z,0.00
2019-04-10T00:16:05.597Z,0.00
2019-04-10T00:17:05.067Z,0.00
2019-04-10T00:18:05.326Z,0.00
2019-04-10T00:19:05.019Z,0.00
2019-04-10T00:20:05.008Z,0.00
2019-04-10T00:21:05.113Z,0.00
2019-04-10T00:22:06.180Z,0.00
2019-04-10T00:23:04.967Z,0.00
2019-04-10T00:24:06.021Z,0.00
2019-04-10T00:25:04.985Z,0.00
2019-04-10T00:26:05.582Z,0.00
2019-04-10T00:27:06.050Z,0.00
2019-04-10T00:28:05.303Z,0.00
2019-04-10T00:29:05.740Z,0.00
2019-04-10T00:30:04.905Z,0.00
2019-04-10T00:31:05.274Z,0.00
2019-04-10T00:32:05.731Z,0.00
2019-04-10T00:33:04.865Z,0.00
2019-04-10T00:34:05.391Z,0.00
2019-04-10T00:35:04.835Z,0.00
2019-04-10T00:36:04.879Z,0.00
2019-04-10T00:37:05.777Z,0.00
2019-04-10T00:38:05.126Z,0.00
2019-04-10T00:39:04.804Z,0.00
2019-04-10T00:40:04.769Z,0.00
2019-04-10T00:41:05.934Z,0.00
2019-04-10T00:42:05.077Z,0.00
2019-04-10T00:43:04.760Z,0.00
2019-04-10T00:44:05.714Z,0.00
2019-04-10T00:45:04.751Z,0.00
2019-04-10T00:46:04.759Z,0.00
2019-04-10T00:47:04.769Z,0.00
2019-04-10T00:48:05.698Z,0.00
2019-04-10T00:49:05.081Z,0.00
2019-04-10T00:50:04.697Z,0.00
2019-04-10T00:51:04.751Z,0.00
2019-04-10T00:52:04.676Z,0.00
2019-04-10T00:53:05.067Z,0.00
2019-04-10T00:54:05.601Z,0.00
2019-04-10T00:55:05.650Z,0.00
2019-04-10T00:56:04.643Z,0.00
2019-04-10T00:57:05.240Z,0.00
2019-04-10T00:58:05.732Z,0.00
2019-04-10T00:59:04.580Z,0.00
2019-04-10T01:00:04.581Z,0.00
2019-04-10T01:01:05.587Z,0.00
2019-04-10T01:02:04.659Z,0.00
2019-04-10T01:03:05.166Z,0.00
2019-04-10T01:04:04.512Z,0.00
2019-04-10T01:05:04.517Z,0.00
2019-04-10T01:06:04.535Z,0.00
2019-04-10T01:07:04.533Z,0.00
2019-04-10T01:08:04.557Z,0.00
2019-04-10T01:09:04.774Z,0.00
2019-04-10T01:10:04.457Z,0.00
2019-04-10T01:11:04.475Z,0.00
2019-04-10T01:12:04.436Z,0.00
2019-04-10T01:13:04.917Z,0.00
2019-04-10T01:14:05.360Z,0.00
2019-04-10T01:15:04.735Z,0.00
2019-04-10T01:16:04.405Z,0.00
2019-04-10T01:17:04.416Z,0.00
2019-04-10T01:18:04.638Z,0.00
2019-04-10T01:19:04.364Z,0.00
2019-04-10T01:20:05.078Z,0.00
2019-04-10T01:21:04.348Z,0.00
2019-04-10T01:22:04.352Z,0.00
2019-04-10T01:23:04.324Z,0.00
2019-04-10T01:24:04.286Z,0.00
2019-04-10T01:25:04.294Z,0.00
2019-04-10T01:26:05.195Z,0.00
2019-04-10T01:27:04.477Z,0.00
2019-04-10T01:28:04.664Z,0.00
2019-04-10T01:29:05.128Z,0.00
2019-04-10T01:30:04.358Z,0.00
2019-04-10T01:31:04.529Z,0.00
2019-04-10T01:32:04.231Z,0.00
2019-04-10T01:33:04.195Z,0.00
2019-04-10T01:34:05.249Z,0.00
2019-04-10T01:35:04.210Z,0.00
2019-04-10T01:36:04.839Z,0.00
2019-04-10T01:37:04.746Z,0.00
2019-04-10T01:38:05.975Z,0.00
2019-04-10T01:39:04.187Z,0.00
2019-04-10T01:40:04.517Z,0.00
2019-04-10T01:41:04.145Z,0.00
2019-04-10T01:42:04.125Z,0.00
2019-04-10T01:43:09.987Z,0.00
2019-04-10T01:44:05.676Z,0.00
2019-04-10T01:45:04.965Z,0.00
2019-04-10T01:46:04.241Z,0.00
2019-04-10T01:47:04.661Z,0.00
2019-04-10T01:48:04.070Z,0.00
2019-04-10T01:49:05.064Z,0.00
2019-04-10T01:50:04.426Z,0.00
2019-04-10T01:51:04.049Z,0.00
2019-04-10T01:52:04.818Z,0.00
2019-04-10T01:53:03.998Z,0.00
2019-04-10T01:54:03.982Z,0.00
2019-04-10T01:55:16.996Z,0.00
2019-04-10T01:56:05.293Z,0.00
2019-04-10T01:57:04.168Z,0.00
2019-04-10T01:58:05.037Z,0.00
2019-04-10T01:59:03.913Z,0.00
2019-04-10T02:00:04.646Z,0.00
2019-04-10T02:01:03.980Z,0.00
2019-04-10T02:02:05.075Z,0.00
2019-04-10T02:03:04.004Z,0.00
2019-04-10T02:04:04.656Z,0.00
2019-04-10T02:05:04.062Z,0.00
2019-04-10T02:06:03.849Z,0.00
2019-04-10T02:07:03.858Z,0.00
2019-04-10T02:08:08.976Z,0.00
2019-04-10T02:09:04.814Z,0.00
2019-04-10T02:10:03.831Z,0.00
2019-04-10T02:11:04.836Z,0.00
2019-04-10T02:12:04.096Z,0.00
2019-04-10T02:13:03.793Z,0.00
2019-04-10T02:14:03.802Z,0.00
2019-04-10T02:15:04.787Z,0.00
2019-04-10T02:16:03.805Z,0.00
2019-04-10T02:17:04.293Z,0.00
2019-04-10T02:18:03.715Z,0.00
2019-04-10T02:19:03.909Z,0.00
2019-04-10T02:20:04.863Z,0.00
2019-04-10T02:21:03.695Z,0.00
2019-04-10T02:22:04.399Z,0.00
2019-04-10T02:23:03.853Z,0.00
2019-04-10T02:24:03.691Z,0.00
2019-04-10T02:25:03.641Z,0.00
2019-04-10T02:26:03.685Z,0.00
2019-04-10T02:27:03.627Z,0.00
2019-04-10T02:28:04.791Z,0.00
2019-04-10T02:29:03.872Z,0.00
2019-04-10T02:30:05.168Z,0.00
2019-04-10T02:31:04.807Z,0.00
2019-04-10T02:32:04.140Z,0.00
2019-04-10T02:33:04.306Z,0.00
2019-04-10T02:34:04.772Z,0.00
2019-04-10T02:35:04.039Z,0.00
2019-04-10T02:36:04.285Z,0.00
2019-04-10T02:37:03.543Z,0.00
2019-04-10T02:38:22.659Z,0.00
2019-04-10T02:39:15.132Z,0.00
2019-04-10T02:40:05.650Z,0.00
2019-04-10T02:41:03.695Z,0.00
2019-04-10T02:42:03.464Z,0.00
2019-04-10T02:43:05.442Z,0.00
2019-04-10T02:44:04.865Z,0.00
2019-04-10T02:45:03.547Z,0.00
2019-04-10T02:46:04.055Z,0.00
2019-04-10T02:47:04.439Z,0.00
2019-04-10T02:48:04.111Z,0.00
2019-04-10T02:49:04.155Z,0.00
2019-04-10T02:50:05.347Z,0.00
2019-04-10T02:51:05.332Z,0.00
2019-04-10T02:52:04.081Z,0.00
2019-04-10T02:53:03.515Z,0.00
2019-04-10T02:54:05.025Z,0.00
2019-04-10T02:55:03.767Z,0.00
2019-04-10T02:56:03.341Z,0.00
2019-04-10T02:57:03.647Z,0.00
2019-04-10T02:58:03.293Z,0.00
2019-04-10T02:59:04.865Z,0.00
2019-04-10T03:01:25.150Z,0.00
2019-04-10T03:02:23.972Z,0.00
2019-04-10T03:03:22.808Z,0.00
2019-04-10T03:04:22.807Z,0.00
2019-04-10T03:05:24.865Z,0.00
2019-04-10T03:06:22.939Z,0.00
2019-04-10T03:07:23.997Z,0.00
2019-04-10T03:08:39.642Z,0.00
2019-04-10T03:09:37.088Z,0.00
2019-04-10T03:10:31.609Z,0.00
2019-04-10T03:11:24.446Z,0.00
2019-04-10T03:12:23.778Z,0.00
2019-04-10T03:13:23.922Z,0.00
2019-04-10T03:14:26.392Z,0.00
2019-04-10T03:15:23.223Z,0.00
2019-04-10T03:16:23.667Z,0.00
2019-04-10T03:17:22.665Z,0.00
2019-04-10T03:18:22.989Z,0.00
2019-04-10T03:19:22.617Z,0.00
2019-04-10T03:20:22.623Z,0.00
2019-04-10T03:21:22.911Z,0.00
2019-04-10T03:22:23.595Z,0.00
2019-04-10T03:23:23.215Z,0.00
2019-04-10T03:24:23.237Z,0.00
2019-04-10T03:25:22.556Z,0.00
2019-04-10T03:26:23.579Z,0.00
2019-04-10T03:27:22.659Z,0.00
2019-04-10T03:28:22.952Z,0.00
2019-04-10T03:29:22.537Z,0.00
2019-04-10T03:30:23.431Z,0.00
2019-04-10T03:31:24.648Z,0.00
2019-04-10T03:32:23.645Z,0.00
2019-04-10T03:33:26.699Z,0.00
2019-04-10T03:34:25.474Z,0.00
2019-04-10T03:35:22.837Z,0.00
2019-04-10T03:36:23.228Z,0.00
2019-04-10T03:37:22.423Z,0.00
2019-04-10T03:38:25.790Z,0.00
2019-04-10T03:39:23.614Z,0.00
2019-04-10T03:40:22.387Z,0.00
2019-04-10T03:41:22.400Z,0.00
2019-04-10T03:42:23.226Z,0.00
2019-04-10T03:43:22.350Z,0.00
2019-04-10T03:44:22.843Z,0.00
2019-04-10T03:45:22.446Z,0.00
2019-04-10T03:46:23.499Z,0.00
2019-04-10T03:47:22.951Z,0.00
2019-04-10T03:48:23.081Z,0.00
2019-04-10T03:49:22.290Z,0.00
2019-04-10T03:50:22.273Z,0.00
2019-04-10T03:51:22.831Z,0.00
2019-04-10T03:52:22.273Z,0.00
2019-04-10T03:53:23.214Z,0.00
2019-04-10T03:54:22.912Z,0.00
2019-04-10T03:55:23.191Z,0.00
2019-04-10T03:56:23.388Z,0.00
2019-04-10T03:57:22.632Z,0.00
2019-04-10T03:58:23.128Z,0.00
2019-04-10T03:59:22.425Z,0.00
2019-04-10T04:00:22.453Z,0.00
2019-04-10T04:01:22.995Z,0.00
2019-04-10T04:02:22.206Z,0.00
2019-04-10T04:03:22.134Z,0.00
2019-04-10T04:04:22.154Z,0.00
2019-04-10T04:05:22.434Z,0.00
2019-04-10T04:06:22.167Z,0.00
2019-04-10T04:07:24.599Z,0.00
2019-04-10T04:08:22.100Z,0.00
2019-04-10T04:09:22.068Z,0.00
2019-04-10T04:10:22.047Z,0.00
2019-04-10T04:11:22.110Z,0.00
2019-04-10T04:12:22.804Z,0.00
2019-04-10T04:13:22.035Z,0.00
2019-04-10T04:14:22.114Z,4.00
2019-04-10T04:15:22.008Z,0.00
2019-04-10T04:16:22.679Z,0.00
2019-04-10T04:17:22.242Z,4.00
2019-04-10T04:18:21.980Z,0.00
2019-04-10T04:19:24.687Z,4.00
2019-04-10T04:20:22.969Z,0.00
2019-04-10T04:21:21.933Z,4.00
2019-04-10T04:22:22.918Z,4.00
2019-04-10T04:23:21.935Z,4.00
2019-04-10T04:24:23.547Z,8.00
2019-04-10T04:25:21.967Z,8.00
2019-04-10T04:26:21.852Z,4.00
2019-04-10T04:27:21.887Z,8.00
2019-04-10T04:28:21.843Z,8.00
2019-04-10T04:29:22.649Z,12.00
2019-04-10T04:30:22.418Z,12.00
2019-04-10T04:31:22.817Z,16.00
2019-04-10T04:32:21.841Z,16.00
2019-04-10T04:33:21.819Z,20.00
2019-04-10T04:34:22.862Z,20.00
2019-04-10T04:35:22.262Z,28.00
2019-04-10T04:36:21.759Z,28.00
2019-04-10T04:37:22.861Z,32.00
2019-04-10T04:38:21.752Z,36.00
2019-04-10T04:39:26.826Z,40.00
2019-04-10T04:40:23.574Z,48.00
2019-04-10T04:41:21.718Z,52.00
2019-04-10T04:42:22.349Z,60.00
2019-04-10T04:43:23.027Z,64.00
2019-04-10T04:44:22.188Z,72.00
2019-04-10T04:45:21.652Z,80.00
2019-04-10T04:46:21.622Z,80.00
2019-04-10T04:47:22.331Z,92.00
2019-04-10T04:48:21.983Z,100.00
2019-04-10T04:49:21.592Z,108.00
2019-04-10T04:50:21.594Z,116.00
2019-04-10T04:51:21.967Z,124.00
2019-04-10T04:52:21.581Z,136.00
2019-04-10T04:53:21.620Z,144.00
2019-04-10T04:54:21.540Z,156.00
2019-04-10T04:55:21.829Z,164.00
2019-04-10T04:56:21.959Z,180.00
2019-04-10T04:57:22.578Z,188.00
2019-04-10T04:58:22.279Z,200.00
2019-04-10T04:59:21.502Z,216.00
2019-04-10T05:00:21.582Z,228.00
2019-04-10T05:01:21.493Z,240.00
2019-04-10T05:02:21.953Z,256.00
2019-04-10T05:03:21.462Z,268.00
2019-04-10T05:04:21.445Z,284.00
2019-04-10T05:05:21.467Z,296.00
2019-04-10T05:06:22.292Z,312.00
2019-04-10T05:07:22.395Z,332.00
2019-04-10T05:08:21.761Z,344.00
2019-04-10T05:09:33.084Z,364.00
2019-04-10T05:10:22.912Z,380.00
2019-04-10T05:11:22.321Z,396.00
2019-04-10T05:12:21.403Z,412.00
2019-04-10T05:13:22.242Z,432.00
2019-04-10T05:14:21.684Z,452.00
2019-04-10T05:15:21.639Z,468.00
2019-04-10T05:16:21.336Z,488.00
2019-04-10T05:17:22.183Z,508.00
2019-04-10T05:18:21.330Z,528.00
2019-04-10T05:19:21.284Z,548.00
2019-04-10T05:20:21.319Z,564.00
2019-04-10T05:21:21.439Z,584.00
2019-04-10T05:22:22.308Z,604.00
2019-04-10T05:23:24.393Z,620.00
2019-04-10T05:24:22.010Z,640.00
2019-04-10T05:25:23.825Z,656.00
2019-04-10T05:26:21.339Z,676.00
2019-04-10T05:27:21.219Z,696.00
2019-04-10T05:28:22.723Z,716.00
2019-04-10T05:29:22.025Z,732.00
2019-04-10T05:30:21.880Z,752.00
2019-04-10T05:31:21.493Z,772.00
2019-04-10T05:32:21.545Z,788.00
2019-04-10T05:33:21.119Z,804.00
2019-04-10T05:34:21.982Z,824.00
2019-04-10T05:35:21.113Z,844.00
2019-04-10T05:36:21.619Z,864.00
2019-04-10T05:37:21.321Z,880.00
2019-04-10T05:38:21.079Z,896.00
2019-04-10T05:39:21.078Z,908.00
2019-04-10T05:40:21.113Z,924.00
2019-04-10T05:41:21.675Z,944.00
2019-04-10T05:42:21.079Z,956.00
2019-04-10T05:43:21.983Z,968.00
2019-04-10T05:44:20.993Z,984.00
2019-04-10T05:45:21.266Z,1000.00
2019-04-10T05:46:21.643Z,1016.00
2019-04-10T05:47:21.451Z,1040.00
2019-04-10T05:48:23.263Z,1056.00
2019-04-10T05:49:20.954Z,1076.00
2019-04-10T05:50:21.530Z,1092.00
2019-04-10T05:51:21.295Z,1108.00
2019-04-10T05:52:20.915Z,1124.00
2019-04-10T05:53:20.970Z,1136.00
2019-04-10T05:54:20.926Z,1148.00
2019-04-10T05:55:20.906Z,1164.00
2019-04-10T05:56:20.860Z,1172.00
2019-04-10T05:57:20.869Z,1184.00
2019-04-10T05:58:21.748Z,1208.00
2019-04-10T05:59:21.807Z,1224.00
2019-04-10T06:00:20.926Z,1236.00
2019-04-10T06:01:30.465Z,1244.00
2019-04-10T06:02:22.972Z,1256.00
2019-04-10T06:03:20.829Z,1264.00
2019-04-10T06:04:21.097Z,1276.00
2019-04-10T06:05:20.773Z,1288.00
2019-04-10T06:06:20.775Z,1300.00
2019-04-10T06:07:21.123Z,1312.00
2019-04-10T06:08:21.596Z,1316.00
2019-04-10T06:09:20.784Z,1336.00
2019-04-10T06:10:21.664Z,1344.00
2019-04-10T06:11:20.686Z,1352.00
2019-04-10T06:12:20.715Z,1372.00
2019-04-10T06:13:20.681Z,1384.00
2019-04-10T06:14:20.706Z,1396.00
2019-04-10T06:15:21.117Z,1404.00
2019-04-10T06:16:20.665Z,1416.00
2019-04-10T06:17:20.742Z,1424.00
2019-04-10T06:18:20.834Z,1428.00
2019-04-10T06:19:20.612Z,1428.00
2019-04-10T06:20:20.891Z,1428.00
2019-04-10T06:21:21.082Z,1436.00
2019-04-10T06:22:20.862Z,1440.00
2019-04-10T06:23:20.604Z,1448.00
2019-04-10T06:24:20.543Z,1452.00
2019-04-10T06:25:23.558Z,1464.00
2019-04-10T06:26:21.840Z,1472.00
2019-04-10T06:27:20.612Z,1472.00
2019-04-10T06:28:21.354Z,1476.00
2019-04-10T06:29:21.128Z,1472.00
2019-04-10T06:30:20.598Z,1476.00
2019-04-10T06:31:20.798Z,1480.00
2019-04-10T06:32:21.286Z,1488.00
2019-04-10T06:33:20.499Z,1500.00
2019-04-10T06:34:20.604Z,1520.00
2019-04-10T06:35:20.442Z,1544.00
2019-04-10T06:36:21.484Z,1560.00
2019-04-10T06:37:20.422Z,1564.00
2019-04-10T06:38:21.006Z,1572.00
2019-04-10T06:39:20.566Z,1572.00
2019-04-10T06:40:23.862Z,1576.00
2019-04-10T06:41:22.264Z,1584.00
2019-04-10T06:42:20.475Z,1592.00
2019-04-10T06:43:21.162Z,1596.00
2019-04-10T06:44:20.345Z,1608.00
2019-04-10T06:45:20.358Z,1620.00
2019-04-10T06:46:20.315Z,1632.00
2019-04-10T06:47:20.372Z,1632.00
2019-04-10T06:48:20.328Z,1648.00
2019-04-10T06:49:20.661Z,1648.00
2019-04-10T06:50:21.072Z,1664.00
2019-04-10T06:51:21.605Z,1672.00
2019-04-10T06:52:20.696Z,1684.00
2019-04-10T06:53:20.567Z,1688.00
2019-04-10T06:54:20.572Z,1692.00
2019-04-10T06:55:20.222Z,1692.00
2019-04-10T06:56:20.862Z,1700.00
2019-04-10T06:57:20.817Z,1700.00
2019-04-10T06:58:20.214Z,1712.00
2019-04-10T06:59:21.228Z,1708.00
2019-04-10T07:00:21.408Z,1648.00
2019-04-10T07:01:21.537Z,1704.00
2019-04-10T07:02:27.339Z,1740.00
2019-04-10T07:03:21.187Z,1756.00
2019-04-10T07:04:24.201Z,1768.00
2019-04-10T07:05:20.156Z,1768.00
2019-04-10T07:06:22.267Z,1760.00
2019-04-10T07:07:23.458Z,1760.00
2019-04-10T07:08:23.674Z,1756.00
2019-04-10T07:09:21.391Z,1760.00
2019-04-10T07:10:27.242Z,1756.00
2019-04-10T07:11:23.411Z,1772.00
2019-04-10T07:12:21.433Z,1764.00
2019-04-10T07:13:20.038Z,1764.00
2019-04-10T07:14:20.458Z,1768.00
2019-04-10T07:15:23.534Z,1764.00
2019-04-10T07:16:20.128Z,1764.00
2019-04-10T07:17:20.012Z,1760.00
2019-04-10T07:18:20.646Z,1760.00
2019-04-10T07:19:19.988Z,1756.00
2019-04-10T07:20:21.390Z,1752.00
2019-04-10T07:21:20.144Z,1756.00
2019-04-10T07:22:20.732Z,1744.00
2019-04-10T07:23:25.856Z,1744.00
2019-04-10T07:24:20.940Z,1736.00
2019-04-10T07:25:19.900Z,1736.00
2019-04-10T07:26:33.270Z,1736.00
2019-04-10T07:27:21.862Z,1736.00
2019-04-10T07:28:19.874Z,1752.00
2019-04-10T07:29:24.738Z,1748.00
2019-04-10T07:30:24.088Z,1752.00
2019-04-10T07:31:21.366Z,1748.00
2019-04-10T07:32:19.816Z,1748.00
2019-04-10T07:33:21.037Z,1760.00
2019-04-10T07:34:23.862Z,1752.00
2019-04-10T07:35:21.866Z,1740.00
2019-04-10T07:36:20.330Z,1716.00
2019-04-10T07:37:21.658Z,1720.00
2019-04-10T07:38:21.208Z,1688.00
2019-04-10T07:39:19.738Z,1716.00
2019-04-10T07:40:20.642Z,1748.00
2019-04-10T07:41:21.451Z,1744.00
2019-04-10T07:42:30.390Z,1752.00
2019-04-10T07:43:25.453Z,1744.00
2019-04-10T07:44:20.697Z,1744.00
2019-04-10T07:45:19.701Z,1736.00
2019-04-10T07:46:19.700Z,1732.00
2019-04-10T07:47:21.169Z,1732.00
2019-04-10T07:48:20.525Z,1736.00
2019-04-10T07:49:20.811Z,1736.00
2019-04-10T07:50:20.567Z,1736.00
2019-04-10T07:51:19.615Z,1732.00
2019-04-10T07:52:21.065Z,1732.00
2019-04-10T07:53:19.627Z,1740.00
2019-04-10T07:54:21.239Z,1728.00
2019-04-10T07:55:19.577Z,1728.00
2019-04-10T07:56:20.954Z,1728.00
2019-04-10T07:57:20.301Z,1724.00
2019-04-10T07:58:19.584Z,1716.00
2019-04-10T07:59:20.382Z,1716.00
2019-04-10T08:00:20.113Z,1712.00
2019-04-10T08:01:19.500Z,1708.00
2019-04-10T08:02:19.524Z,1708.00
2019-04-10T08:03:19.485Z,1708.00
2019-04-10T08:04:20.506Z,1708.00
2019-04-10T08:05:19.459Z,1700.00
2019-04-10T08:06:19.919Z,1704.00
2019-04-10T08:07:28.569Z,1700.00
2019-04-10T08:08:21.359Z,1704.00
2019-04-10T08:09:19.455Z,1700.00
2019-04-10T08:10:20.014Z,1704.00
2019-04-10T08:11:19.751Z,1700.00
2019-04-10T08:12:19.411Z,1696.00
2019-04-10T08:13:20.349Z,1692.00
2019-04-10T08:14:19.620Z,1680.00
2019-04-10T08:15:19.349Z,1672.00
2019-04-10T08:16:19.361Z,1672.00
2019-04-10T08:17:19.694Z,1664.00
2019-04-10T08:18:19.299Z,1660.00
2019-04-10T08:19:19.310Z,1660.00
2019-04-10T08:20:19.303Z,1652.00
2019-04-10T08:21:19.771Z,1648.00
2019-04-10T08:22:20.228Z,1648.00
2019-04-10T08:23:19.752Z,1640.00
2019-04-10T08:24:20.290Z,1640.00
2019-04-10T08:25:19.522Z,1636.00
2019-04-10T08:26:19.210Z,1632.00
2019-04-10T08:27:19.363Z,1624.00
2019-04-10T08:28:19.843Z,1624.00
2019-04-10T08:29:19.260Z,1620.00
2019-04-10T08:30:19.576Z,1620.00
2019-04-10T08:31:19.189Z,1616.00
2019-04-10T08:32:19.184Z,1616.00
2019-04-10T08:33:19.574Z,1608.00
2019-04-10T08:34:19.488Z,1604.00
2019-04-10T08:35:19.164Z,1596.00
2019-04-10T08:36:19.340Z,1592.00
2019-04-10T08:37:19.156Z,1596.00
2019-04-10T08:38:19.104Z,1592.00
2019-04-10T08:39:32.065Z,1584.00
2019-04-10T08:40:21.063Z,1580.00
2019-04-10T08:41:19.268Z,1580.00
2019-04-10T08:42:19.141Z,1576.00
2019-04-10T08:43:20.126Z,1568.00
2019-04-10T08:44:19.953Z,1564.00
2019-04-10T08:45:19.046Z,1560.00
2019-04-10T08:46:19.824Z,1552.00
2019-04-10T08:47:19.362Z,1548.00
2019-04-10T08:48:19.009Z,1544.00
2019-04-10T08:49:18.968Z,1540.00
2019-04-10T08:50:19.711Z,1536.00
2019-04-10T08:51:19.240Z,1532.00
2019-04-10T08:52:19.926Z,1524.00
2019-04-10T08:53:20.065Z,1520.00
2019-04-10T08:54:18.900Z,1516.00
2019-04-10T08:55:18.924Z,1512.00
2019-04-10T08:56:18.937Z,1508.00
2019-04-10T08:57:19.323Z,1504.00
2019-04-10T08:58:18.895Z,1500.00
2019-04-10T08:59:19.317Z,1492.00
2019-04-10T09:00:18.844Z,1492.00
2019-04-10T09:01:18.925Z,1488.00
2019-04-10T09:02:20.035Z,1480.00
2019-04-10T09:03:19.025Z,1476.00
2019-04-10T09:04:18.829Z,1472.00
2019-04-10T09:05:19.609Z,1472.00
2019-04-10T09:06:19.517Z,1468.00
2019-04-10T09:07:19.774Z,1468.00
2019-04-10T09:08:18.998Z,1464.00
2019-04-10T09:09:18.809Z,1460.00
2019-04-10T09:10:18.751Z,1456.00
2019-04-10T09:11:26.189Z,1456.00
2019-04-10T09:12:19.886Z,1456.00
2019-04-10T09:13:18.729Z,1456.00
2019-04-10T09:14:19.102Z,1448.00
2019-04-10T09:15:18.695Z,1444.00
2019-04-10T09:16:18.704Z,1444.00
2019-04-10T09:17:19.410Z,1440.00
2019-04-10T09:18:18.863Z,1440.00
2019-04-10T09:19:19.014Z,1432.00
2019-04-10T09:20:18.720Z,1428.00
2019-04-10T09:21:19.452Z,1428.00
2019-04-10T09:22:18.639Z,1424.00
2019-04-10T09:23:27.742Z,1416.00
2019-04-10T09:24:19.688Z,1412.00
2019-04-10T09:25:19.706Z,1412.00
2019-04-10T09:26:18.574Z,1408.00
2019-04-10T09:27:19.216Z,1404.00
2019-04-10T09:28:18.587Z,1404.00
2019-04-10T09:29:18.549Z,1396.00
2019-04-10T09:30:18.540Z,1392.00
2019-04-10T09:31:19.710Z,1376.00
2019-04-10T09:32:18.540Z,1368.00
2019-04-10T09:33:24.247Z,1360.00
2019-04-10T09:34:19.977Z,1356.00
2019-04-10T09:35:19.094Z,1348.00
2019-04-10T09:36:19.732Z,1340.00
2019-04-10T09:37:18.449Z,1340.00
2019-04-10T09:38:18.828Z,1336.00
2019-04-10T09:39:19.175Z,1328.00
2019-04-10T09:40:18.433Z,1324.00
2019-04-10T09:41:19.291Z,1320.00
2019-04-10T09:42:19.393Z,1312.00
2019-04-10T09:43:18.406Z,1304.00
2019-04-10T09:44:18.693Z,1296.00
2019-04-10T09:45:18.370Z,1296.00
2019-04-10T09:46:18.352Z,1284.00
2019-04-10T09:47:18.456Z,1280.00
2019-04-10T09:48:18.662Z,1268.00
2019-04-10T09:49:30.426Z,1260.00
2019-04-10T09:50:19.402Z,1260.00
2019-04-10T09:51:19.569Z,1256.00
2019-04-10T09:52:18.699Z,1252.00
2019-04-10T09:53:19.089Z,1244.00
2019-04-10T09:54:18.332Z,1252.00
2019-04-10T09:55:18.259Z,1256.00
2019-04-10T09:56:19.256Z,1252.00
2019-04-10T09:57:18.218Z,1244.00
2019-04-10T09:58:18.254Z,1252.00
2019-04-10T09:59:18.210Z,1252.00
2019-04-10T10:00:19.174Z,1248.00
2019-04-10T10:01:18.190Z,1260.00
2019-04-10T10:02:18.211Z,1264.00
2019-04-10T10:03:19.390Z,1260.00
2019-04-10T10:04:18.162Z,1268.00
2019-04-10T10:05:18.235Z,1260.00
2019-04-10T10:06:27.345Z,1256.00
2019-04-10T10:07:19.135Z,1252.00
2019-04-10T10:08:18.401Z,1252.00
2019-04-10T10:09:18.116Z,1248.00
2019-04-10T10:10:18.094Z,1248.00
2019-04-10T10:11:18.163Z,1248.00
2019-04-10T10:12:18.098Z,1252.00
2019-04-10T10:13:18.309Z,1248.00
2019-04-10T10:14:18.841Z,1252.00
2019-04-10T10:15:18.982Z,1256.00
2019-04-10T10:16:18.949Z,1264.00
2019-04-10T10:17:18.021Z,1268.00
2019-04-10T10:18:18.044Z,1276.00
2019-04-10T10:19:18.272Z,1304.00
2019-04-10T10:20:17.970Z,1288.00
2019-04-10T10:21:18.703Z,1276.00
2019-04-10T10:22:17.972Z,1276.00
2019-04-10T10:23:18.045Z,1264.00
2019-04-10T10:24:18.284Z,1268.00
2019-04-10T10:25:17.928Z,1276.00
2019-04-10T10:26:17.942Z,1272.00
2019-04-10T10:27:17.905Z,1280.00
2019-04-10T10:28:18.744Z,1292.00
2019-04-10T10:29:17.873Z,1348.00
2019-04-10T10:30:17.858Z,1320.00
2019-04-10T10:31:17.953Z,1280.00
2019-04-10T10:32:17.838Z,1280.00
2019-04-10T10:33:17.839Z,1288.00
2019-04-10T10:34:18.563Z,1288.00
2019-04-10T10:35:18.840Z,1284.00
2019-04-10T10:36:17.866Z,1292.00
2019-04-10T10:37:18.675Z,1300.00
2019-04-10T10:38:18.958Z,1280.00
2019-04-10T10:39:18.869Z,1268.00
2019-04-10T10:40:17.779Z,1284.00
2019-04-10T10:41:18.110Z,1364.00
2019-04-10T10:42:17.729Z,1364.00
2019-04-10T10:43:18.372Z,1348.00
2019-04-10T10:44:17.756Z,1300.00
2019-04-10T10:45:18.638Z,1288.00
2019-04-10T10:46:17.691Z,1380.00
2019-04-10T10:47:17.692Z,1444.00
2019-04-10T10:48:17.769Z,1280.00
2019-04-10T10:49:18.046Z,1436.00
2019-04-10T10:50:17.642Z,1492.00
2019-04-10T10:51:18.359Z,1444.00
2019-04-10T10:52:17.644Z,1316.00
2019-04-10T10:53:17.643Z,1332.00
2019-04-10T10:54:18.866Z,1340.00
2019-04-10T10:55:17.875Z,1348.00
2019-04-10T10:56:18.230Z,1340.00
2019-04-10T10:57:17.568Z,1340.00
2019-04-10T10:58:17.587Z,1360.00
2019-04-10T10:59:17.627Z,1180.00
2019-04-10T11:00:18.654Z,1240.00
2019-04-10T11:01:17.999Z,1420.00
2019-04-10T11:02:17.565Z,1468.00
2019-04-10T11:03:18.185Z,1548.00
2019-04-10T11:04:17.511Z,1604.00
2019-04-10T11:05:17.500Z,1612.00
2019-04-10T11:06:17.850Z,1708.00
2019-04-10T11:07:18.694Z,1776.00
2019-04-10T11:08:17.708Z,1784.00
2019-04-10T11:09:18.210Z,1876.00
2019-04-10T11:10:22.066Z,1844.00
2019-04-10T11:11:18.445Z,1800.00
2019-04-10T11:12:17.727Z,1804.00
2019-04-10T11:13:17.423Z,1628.00
2019-04-10T11:14:17.376Z,1468.00
2019-04-10T11:15:18.371Z,1492.00
2019-04-10T11:16:17.874Z,1580.00
2019-04-10T11:17:17.599Z,1616.00
2019-04-10T11:18:18.083Z,1648.00
2019-04-10T11:19:17.347Z,1748.00
2019-04-10T11:20:17.820Z,1452.00
2019-04-10T11:21:18.229Z,1600.00
2019-04-10T11:22:22.522Z,1536.00
2019-04-10T11:23:18.359Z,1536.00
2019-04-10T11:24:17.341Z,1380.00
2019-04-10T11:25:17.253Z,1688.00
2019-04-10T11:26:20.562Z,1708.00
2019-04-10T11:27:18.224Z,1948.00
2019-04-10T11:28:18.698Z,2016.00
2019-04-10T11:29:17.548Z,1996.00
2019-04-10T11:30:18.303Z,1832.00
2019-04-10T11:31:17.437Z,1736.00
2019-04-10T11:32:17.633Z,1648.00
2019-04-10T11:33:17.863Z,1692.00
2019-04-10T11:34:18.111Z,1616.00
2019-04-10T11:35:17.516Z,1468.00
2019-04-10T11:36:17.563Z,1704.00
2019-04-10T11:38:19.211Z,1484.00
2019-04-10T11:39:23.361Z,1564.00
2019-04-10T11:40:18.193Z,1912.00
2019-04-10T11:41:18.078Z,1884.00
2019-04-10T11:42:18.425Z,2208.00
2019-04-10T11:43:17.118Z,2196.00
2019-04-10T11:45:19.053Z,2000.00
2019-04-10T11:46:17.037Z,2224.00
2019-04-10T11:47:17.447Z,2380.00
2019-04-10T11:48:18.663Z,2528.00
2019-04-10T11:49:19.414Z,2460.00
2019-04-10T11:50:18.556Z,2212.00
2019-04-10T11:51:18.450Z,1700.00
2019-04-10T11:52:19.029Z,1756.00
2019-04-10T11:53:17.761Z,1664.00
2019-04-10T11:54:18.154Z,1632.00
2019-04-10T11:55:20.320Z,1684.00
2019-04-10T11:56:19.270Z,1740.00
2019-04-10T11:57:19.827Z,1728.00
2019-04-10T11:58:17.915Z,1564.00
2019-04-10T11:59:21.198Z,1680.00
2019-04-10T12:00:19.868Z,1800.00
2019-04-10T12:01:17.738Z,1764.00
2019-04-10T12:02:20.769Z,1760.00
2019-04-10T12:03:18.338Z,1612.00
2019-04-10T12:04:19.693Z,1992.00
2019-04-10T12:05:19.924Z,2016.00
2019-04-10T12:06:18.345Z,1860.00
2019-04-10T12:07:52.919Z,1428.00
2019-04-10T12:08:41.694Z,1256.00
2019-04-10T12:09:57.210Z,1312.00
2019-04-10T12:11:19.957Z,1352.00
2019-04-10T12:12:17.396Z,1464.00
2019-04-10T12:13:17.970Z,1884.00
2019-04-10T12:14:16.710Z,1792.00
2019-04-10T12:15:17.254Z,1984.00
2019-04-10T12:16:16.845Z,2092.00
2019-04-10T12:17:16.674Z,1976.00
2019-04-10T12:18:16.652Z,1672.00
2019-04-10T12:19:17.367Z,1592.00
2019-04-10T12:20:16.771Z,1588.00
2019-04-10T12:21:17.684Z,1608.00
2019-04-10T12:22:16.646Z,1576.00
2019-04-10T12:23:16.796Z,1624.00
2019-04-10T12:24:16.658Z,1636.00
2019-04-10T12:25:16.655Z,1620.00
2019-04-10T12:26:16.579Z,1636.00
2019-04-10T12:27:16.733Z,1572.00
2019-04-10T12:28:16.578Z,1520.00
2019-04-10T12:29:16.591Z,1524.00
2019-04-10T12:30:17.399Z,1552.00
2019-04-10T12:31:17.623Z,1584.00
2019-04-10T12:32:16.687Z,1592.00
2019-04-10T12:33:17.120Z,1480.00
2019-04-10T12:34:16.498Z,1164.00
2019-04-10T12:35:17.208Z,1140.00
2019-04-10T12:36:16.515Z,1188.00
2019-04-10T12:37:17.501Z,1220.00